Time;durP1;ratioP1;P1;durP2;ratioP2;P2;SDS_P1;SDS_P2;PMS_P1;PMS_P2;Temp;Humidity;BMP_temperature;BMP_pressure;BME280_temperature;BME280_humidity;BME280_pressure;Samples;Min_cycle;Max_cycle;Signal;HPM_P1;HPM_P2
2023/09/28 00:02:53;;;;;;;11.23;8.23;;;19.00;99.90;;;;;;5045916;28;20183;-73
2023/09/28 00:05:20;;;;;;;15.30;8.32;;;19.00;99.90;;;;;;5051549;28;20610;-72
2023/09/28 00:07:47;;;;;;;20.77;9.40;;;19.00;99.90;;;;;;5052928;28;20211;-73
2023/09/28 00:10:15;;;;;;;12.20;8.63;;;19.00;99.90;;;;;;5041906;28;20184;-72
2023/09/28 00:12:43;;;;;;;11.23;8.93;;;19.10;99.90;;;;;;5046370;28;20190;-72
2023/09/28 00:15:10;;;;;;;15.93;8.43;;;19.10;99.90;;;;;;5041260;28;20191;-73
2023/09/28 00:17:40;;;;;;;12.18;8.55;;;19.10;99.90;;;;;;5049042;28;20179;-72
2023/09/28 00:20:12;;;;;;;15.25;8.70;;;19.10;99.90;;;;;;5051446;28;20184;-72
2023/09/28 00:22:38;;;;;;;12.30;8.63;;;19.10;99.90;;;;;;5051342;28;20549;-73
2023/09/28 00:25:10;;;;;;;13.10;8.32;;;19.10;99.90;;;;;;5052163;28;20194;-73
2023/09/28 00:27:38;;;;;;;10.07;8.65;;;19.10;99.90;;;;;;5040485;28;20278;-73
2023/09/28 00:30:06;;;;;;;14.20;9.48;;;19.10;99.90;;;;;;5042794;28;20183;-74
2023/09/28 00:32:33;;;;;;;14.32;8.85;;;19.10;99.90;;;;;;5040415;28;20199;-73
2023/09/28 00:34:59;;;;;;;14.25;8.90;;;19.10;99.90;;;;;;5052201;28;20202;-72
2023/09/28 00:37:25;;;;;;;11.73;8.73;;;19.10;99.90;;;;;;5050797;28;20207;-73
2023/09/28 00:39:54;;;;;;;16.58;9.35;;;19.10;99.90;;;;;;5034441;28;20619;-73
2023/09/28 00:42:21;;;;;;;11.95;8.80;;;19.10;99.90;;;;;;5041211;28;20188;-74
2023/09/28 00:44:47;;;;;;;18.77;9.15;;;19.10;99.90;;;;;;5044681;28;20277;-73
2023/09/28 00:47:14;;;;;;;11.85;8.85;;;19.10;99.90;;;;;;5014696;28;20223;-74
2023/09/28 00:49:42;;;;;;;13.68;9.35;;;19.10;99.90;;;;;;5050359;28;20183;-72
2023/09/28 00:52:08;;;;;;;12.35;9.15;;;19.10;99.90;;;;;;5028482;28;20191;-70
2023/09/28 00:54:35;;;;;;;12.68;9.18;;;19.10;99.90;;;;;;5033347;28;20192;-72
2023/09/28 00:57:01;;;;;;;10.68;9.02;;;19.10;99.90;;;;;;5046395;28;20238;-74
2023/09/28 00:59:27;;;;;;;12.35;9.25;;;19.10;99.90;;;;;;5050988;28;20222;-71
2023/09/28 01:01:55;;;;;;;12.55;9.32;;;19.10;99.90;;;;;;5049410;28;20638;-73
2023/09/28 01:04:22;;;;;;;12.50;9.32;;;19.10;99.90;;;;;;5018490;28;20198;-72
2023/09/28 01:06:48;;;;;;;11.35;8.88;;;19.10;99.90;;;;;;5050289;28;20237;-73
2023/09/28 01:09:15;;;;;;;13.75;9.32;;;19.00;99.90;;;;;;5050315;28;20558;-72
2023/09/28 01:11:42;;;;;;;13.40;9.40;;;19.00;99.90;;;;;;5052720;28;20191;-74
2023/09/28 01:14:08;;;;;;;10.52;8.88;;;19.00;99.90;;;;;;5042444;28;20203;-72
2023/09/28 01:16:35;;;;;;;14.55;8.52;;;19.00;99.90;;;;;;5049597;28;20234;-71
2023/09/28 01:19:02;;;;;;;11.50;8.52;;;19.00;99.90;;;;;;5050066;28;20247;-73
2023/09/28 01:21:30;;;;;;;11.27;8.27;;;18.90;99.90;;;;;;5048312;28;20237;-73
2023/09/28 01:23:57;;;;;;;11.95;8.07;;;18.90;99.90;;;;;;5060315;28;20289;-72
2023/09/28 01:26:23;;;;;;;13.40;8.50;;;18.90;99.90;;;;;;5050102;28;20261;-72
2023/09/28 01:28:49;;;;;;;12.43;8.13;;;18.90;99.90;;;;;;5049862;28;20599;-72
2023/09/28 01:31:16;;;;;;;9.32;7.63;;;18.90;99.90;;;;;;5051137;28;20267;-72
2023/09/28 01:33:42;;;;;;;12.45;8.30;;;18.90;99.90;;;;;;5048796;28;20664;-72
2023/09/28 01:36:08;;;;;;;13.18;8.18;;;18.90;99.90;;;;;;5050457;28;20215;-73
2023/09/28 01:39:02;;;;;;;11.45;7.50;;;18.90;99.90;;;;;;5050797;28;20553;-72
2023/09/28 01:41:28;;;;;;;12.00;7.80;;;18.90;99.90;;;;;;5043992;28;20285;-73
2023/09/28 01:43:53;;;;;;;9.48;7.57;;;18.90;99.90;;;;;;5041891;28;20214;-72
2023/09/28 01:46:19;;;;;;;10.30;7.43;;;18.90;99.90;;;;;;5024353;28;20195;-72
2023/09/28 01:48:45;;;;;;;10.63;7.18;;;18.90;99.90;;;;;;5049373;28;20183;-73
2023/09/28 01:51:11;;;;;;;9.77;7.68;;;18.90;99.90;;;;;;5051072;28;20191;-73
2023/09/28 01:53:38;;;;;;;11.68;7.18;;;18.90;99.90;;;;;;5045775;28;20663;-74
2023/09/28 01:56:04;;;;;;;11.55;7.28;;;18.90;99.90;;;;;;5034564;28;20285;-72
2023/09/28 01:58:31;;;;;;;10.65;7.22;;;18.90;99.90;;;;;;5046643;28;20699;-72
2023/09/28 02:00:57;;;;;;;11.07;7.20;;;18.80;99.90;;;;;;5049663;28;20189;-75
2023/09/28 02:03:25;;;;;;;9.98;6.88;;;18.90;99.90;;;;;;5049829;28;20183;-72
2023/09/28 02:05:52;;;;;;;12.40;7.10;;;18.80;99.90;;;;;;5036903;28;20183;-73
2023/09/28 02:08:19;;;;;;;10.95;7.07;;;18.80;99.90;;;;;;5048705;28;20183;-72
2023/09/28 02:10:45;;;;;;;12.20;6.82;;;18.80;99.90;;;;;;5050888;28;20187;-73
2023/09/28 02:13:12;;;;;;;11.45;6.95;;;18.80;99.90;;;;;;5050484;28;20297;-73
2023/09/28 02:15:41;;;;;;;9.75;7.35;;;18.80;99.90;;;;;;5029059;28;20561;-72
2023/09/28 02:18:07;;;;;;;9.20;7.10;;;18.70;99.90;;;;;;5050612;28;20332;-72
2023/09/28 02:20:34;;;;;;;11.30;7.78;;;18.70;99.90;;;;;;5054886;28;20273;-74
2023/09/28 02:23:01;;;;;;;11.32;7.30;;;18.70;99.90;;;;;;5053896;28;20297;-74
2023/09/28 02:25:27;;;;;;;10.35;7.10;;;18.70;99.90;;;;;;5048405;28;20662;-74
2023/09/28 02:27:53;;;;;;;9.57;7.53;;;18.70;99.90;;;;;;5043899;28;20274;-73
2023/09/28 02:30:22;;;;;;;10.35;7.53;;;18.60;99.90;;;;;;5052873;28;20750;-71
2023/09/28 02:32:49;;;;;;;10.15;7.43;;;18.60;99.90;;;;;;5057022;28;20187;-74
2023/09/28 02:35:16;;;;;;;12.13;7.50;;;18.60;99.90;;;;;;5057056;28;20350;-74
2023/09/28 02:37:45;;;;;;;13.55;7.90;;;18.60;99.90;;;;;;5055112;28;20191;-73
2023/09/28 02:40:12;;;;;;;9.98;7.78;;;18.50;99.90;;;;;;5054361;28;20190;-73
2023/09/28 02:42:39;;;;;;;11.02;7.75;;;18.50;99.90;;;;;;5055202;28;20655;-73
2023/09/28 02:45:11;;;;;;;10.93;7.60;;;18.50;99.90;;;;;;5055512;28;20190;-74
2023/09/28 02:47:43;;;;;;;16.33;7.55;;;18.50;99.90;;;;;;5041574;28;20188;-72
2023/09/28 02:50:11;;;;;;;14.00;7.90;;;18.40;99.90;;;;;;5050789;28;20256;-73
2023/09/28 02:52:39;;;;;;;10.02;7.70;;;18.40;99.90;;;;;;5054683;28;20187;-73
2023/09/28 02:55:07;;;;;;;12.27;8.43;;;18.40;99.90;;;;;;5052934;28;20640;-74
2023/09/28 02:57:35;;;;;;;10.05;7.88;;;18.30;99.90;;;;;;5034661;28;20215;-73
2023/09/28 03:00:11;;;;;;;12.50;8.30;;;18.30;99.90;;;;;;5050334;28;20191;-73
2023/09/28 03:02:38;;;;;;;11.73;7.85;;;18.30;99.90;;;;;;5053644;28;20671;-74
2023/09/28 03:05:04;;;;;;;11.55;7.80;;;18.30;99.90;;;;;;5054053;28;20179;-73
2023/09/28 03:07:31;;;;;;;14.57;7.95;;;18.20;99.90;;;;;;5050648;28;20183;-73
2023/09/28 03:09:57;;;;;;;12.18;8.07;;;18.20;99.90;;;;;;5041083;28;20233;-74
2023/09/28 03:12:23;;;;;;;11.30;8.40;;;18.20;99.90;;;;;;5053510;28;20183;-74
2023/09/28 03:14:49;;;;;;;10.50;8.07;;;18.10;99.90;;;;;;5053258;28;20302;-74
2023/09/28 03:17:14;;;;;;;15.85;8.60;;;18.20;99.90;;;;;;5043629;28;20219;-72
2023/09/28 03:19:40;;;;;;;14.55;8.93;;;18.10;99.90;;;;;;5041082;28;20186;-73
2023/09/28 03:22:06;;;;;;;16.17;8.80;;;18.10;99.90;;;;;;5054125;28;20180;-72
2023/09/28 03:24:32;;;;;;;14.30;8.63;;;18.10;99.90;;;;;;5028999;28;20640;-71
2023/09/28 03:26:58;;;;;;;12.40;8.15;;;18.10;99.90;;;;;;5043885;28;20191;-72
2023/09/28 03:29:24;;;;;;;16.65;8.30;;;18.00;99.90;;;;;;5043212;28;20184;-73
2023/09/28 03:31:50;;;;;;;13.10;8.95;;;18.00;99.90;;;;;;5046290;28;20190;-73
2023/09/28 03:34:16;;;;;;;11.13;8.55;;;18.00;99.90;;;;;;5054625;28;20266;-73
2023/09/28 03:36:42;;;;;;;13.68;8.38;;;18.00;99.90;;;;;;5053737;28;20256;-73
2023/09/28 03:39:10;;;;;;;11.57;8.75;;;17.90;99.90;;;;;;5048793;28;20192;-73
2023/09/28 03:41:37;;;;;;;13.48;8.90;;;17.90;99.90;;;;;;5028348;28;20322;-73
2023/09/28 03:44:03;;;;;;;12.38;9.00;;;17.90;99.90;;;;;;5051513;28;20233;-73
2023/09/28 03:46:29;;;;;;;13.82;9.15;;;17.90;99.90;;;;;;5052619;28;20229;-73
2023/09/28 03:48:56;;;;;;;12.70;9.45;;;17.80;99.90;;;;;;5052098;28;20187;-74
2023/09/28 03:51:21;;;;;;;14.65;9.82;;;17.80;99.90;;;;;;5038095;28;20188;-72
2023/09/28 03:53:47;;;;;;;13.02;8.77;;;17.80;99.90;;;;;;5048161;28;20198;-73
2023/09/28 03:56:13;;;;;;;14.43;9.77;;;17.80;99.90;;;;;;5041641;28;20626;-72
2023/09/28 03:58:39;;;;;;;14.55;9.07;;;17.70;99.90;;;;;;5051746;28;20210;-75
2023/09/28 04:01:07;;;;;;;13.43;9.25;;;17.70;99.90;;;;;;5041646;28;20184;-71
2023/09/28 04:03:37;;;;;;;18.65;9.18;;;17.70;99.90;;;;;;5060234;28;20183;-73
2023/09/28 04:06:03;;;;;;;15.93;10.05;;;17.70;99.90;;;;;;5053550;28;20187;-74
2023/09/28 04:08:29;;;;;;;16.65;9.32;;;17.60;99.90;;;;;;5052396;28;20187;-72
2023/09/28 04:10:55;;;;;;;13.50;9.85;;;17.60;99.90;;;;;;5053335;28;20242;-74
2023/09/28 04:13:21;;;;;;;14.15;9.80;;;17.60;99.90;;;;;;5049817;28;20180;-73
2023/09/28 04:15:48;;;;;;;14.40;9.43;;;17.50;99.90;;;;;;5034391;28;20734;-73
2023/09/28 04:18:14;;;;;;;13.48;10.40;;;17.50;99.90;;;;;;5051570;28;20274;-73
2023/09/28 04:20:41;;;;;;;15.18;9.77;;;17.50;99.90;;;;;;5051054;28;20278;-74
2023/09/28 04:23:08;;;;;;;20.58;10.27;;;17.50;99.90;;;;;;5050463;28;20639;-71
2023/09/28 04:25:35;;;;;;;13.18;9.82;;;17.40;99.90;;;;;;5047453;28;20241;-72
2023/09/28 04:28:01;;;;;;;14.02;10.45;;;17.40;99.90;;;;;;5050817;28;20278;-72
2023/09/28 04:30:27;;;;;;;15.00;10.25;;;17.40;99.90;;;;;;5051299;28;20195;-74
2023/09/28 04:32:54;;;;;;;15.50;10.57;;;17.40;99.90;;;;;;5052195;28;20270;-73
2023/09/28 04:35:21;;;;;;;13.70;10.00;;;17.40;99.90;;;;;;5042360;28;20262;-72
2023/09/28 04:37:49;;;;;;;16.13;10.13;;;17.40;99.90;;;;;;5041841;28;20179;-73
2023/09/28 04:40:16;;;;;;;15.20;10.23;;;17.40;99.90;;;;;;5050904;28;20190;-72
2023/09/28 04:42:42;;;;;;;13.63;10.30;;;17.40;99.90;;;;;;5051626;28;20236;-72
2023/09/28 04:45:09;;;;;;;17.15;10.65;;;17.30;99.90;;;;;;5050569;28;20218;-73
2023/09/28 04:47:36;;;;;;;16.20;10.68;;;17.30;99.90;;;;;;5051837;28;20270;-73
2023/09/28 04:50:03;;;;;;;19.98;10.70;;;17.30;99.90;;;;;;5051828;28;20240;-73
2023/09/28 04:52:30;;;;;;;15.02;10.23;;;17.30;99.90;;;;;;5051096;28;20191;-72
2023/09/28 04:54:57;;;;;;;15.20;10.98;;;17.30;99.90;;;;;;5045567;28;20673;-73
2023/09/28 04:57:24;;;;;;;17.10;10.73;;;17.30;99.90;;;;;;5040451;28;20231;-74
2023/09/28 04:59:50;;;;;;;16.45;11.23;;;17.20;99.90;;;;;;5051491;28;20179;-72
2023/09/28 05:02:17;;;;;;;16.27;11.57;;;17.20;99.90;;;;;;5045659;28;20195;-73
2023/09/28 05:04:43;;;;;;;15.23;11.07;;;17.20;99.90;;;;;;5051745;28;20225;-74
2023/09/28 05:07:09;;;;;;;19.95;10.70;;;17.10;99.90;;;;;;5034653;28;20636;-75
2023/09/28 05:09:35;;;;;;;16.02;11.40;;;17.10;99.90;;;;;;5046688;28;20197;-73
2023/09/28 05:12:01;;;;;;;15.65;10.93;;;17.10;99.90;;;;;;5051362;28;20216;-72
2023/09/28 05:14:28;;;;;;;19.63;11.57;;;17.10;99.90;;;;;;5051037;28;20709;-71
2023/09/28 05:16:54;;;;;;;19.38;11.63;;;17.10;99.90;;;;;;5044370;28;20219;-76
2023/09/28 05:19:21;;;;;;;24.67;11.35;;;17.00;99.90;;;;;;5037791;28;20209;-73
2023/09/28 05:21:47;;;;;;;17.13;10.63;;;17.00;99.90;;;;;;5037807;28;20263;-70
2023/09/28 05:24:13;;;;;;;25.98;10.02;;;16.90;99.90;;;;;;5042805;28;20183;-75
2023/09/28 05:26:39;;;;;;;21.20;9.10;;;16.90;99.90;;;;;;5049223;28;20183;-74
2023/09/28 05:29:06;;;;;;;17.60;8.88;;;16.90;99.90;;;;;;5045228;28;20183;-73
2023/09/28 05:31:32;;;;;;;23.23;8.40;;;16.90;99.90;;;;;;5048456;28;20273;-73
2023/09/28 05:33:58;;;;;;;17.23;7.20;;;16.90;99.90;;;;;;5050697;28;20711;-74
2023/09/28 05:36:24;;;;;;;18.48;7.70;;;17.00;99.90;;;;;;5044635;28;20220;-74
2023/09/28 05:38:51;;;;;;;15.70;6.75;;;17.00;99.90;;;;;;5041517;28;20278;-73
2023/09/28 05:41:16;;;;;;;21.42;6.88;;;16.90;99.90;;;;;;5050537;28;20274;-70
2023/09/28 05:43:43;;;;;;;14.85;6.28;;;17.00;99.90;;;;;;5030930;28;21419;-72
2023/09/28 05:46:09;;;;;;;23.05;6.32;;;17.00;99.90;;;;;;5041987;28;20207;-72
2023/09/28 05:48:36;;;;;;;18.63;6.57;;;17.00;99.90;;;;;;5045099;28;20279;-73
2023/09/28 05:51:02;;;;;;;18.65;6.50;;;17.00;99.90;;;;;;5032584;28;20195;-75
2023/09/28 05:53:28;;;;;;;19.38;6.53;;;17.00;99.90;;;;;;5049212;28;20282;-70
2023/09/28 05:55:55;;;;;;;24.73;6.50;;;17.00;99.90;;;;;;5047250;28;20266;-72
2023/09/28 05:58:21;;;;;;;15.98;5.95;;;17.00;99.90;;;;;;5049145;28;20273;-72
2023/09/28 06:00:47;;;;;;;19.33;6.07;;;17.00;99.90;;;;;;5041232;28;20192;-72
2023/09/28 06:03:13;;;;;;;21.70;6.35;;;17.00;99.90;;;;;;5045958;28;20195;-72
2023/09/28 06:05:40;;;;;;;26.38;7.18;;;17.00;99.90;;;;;;5050452;28;20195;-68
2023/09/28 06:08:06;;;;;;;22.50;7.95;;;17.00;99.90;;;;;;5034275;28;20183;-73
2023/09/28 06:10:33;;;;;;;17.42;8.00;;;17.00;99.90;;;;;;5050557;28;20221;-73
2023/09/28 06:12:59;;;;;;;21.77;9.35;;;17.00;99.90;;;;;;5050139;28;20190;-73
2023/09/28 06:15:25;;;;;;;21.80;10.45;;;17.00;99.90;;;;;;5050924;28;20197;-74
2023/09/28 06:17:51;;;;;;;20.13;10.45;;;17.00;99.90;;;;;;5044101;28;20187;-74
2023/09/28 06:20:17;;;;;;;15.88;10.35;;;17.00;99.90;;;;;;5036728;28;20194;-74
2023/09/28 06:22:43;;;;;;;16.77;10.48;;;17.00;99.90;;;;;;5037065;28;20383;-74
2023/09/28 06:25:09;;;;;;;18.45;10.02;;;17.00;99.90;;;;;;5050160;28;20199;-75
2023/09/28 06:27:35;;;;;;;18.63;9.98;;;17.00;99.90;;;;;;5048755;28;20187;-74
2023/09/28 06:30:02;;;;;;;17.35;9.05;;;17.00;99.90;;;;;;5059604;28;20215;-71
2023/09/28 06:32:29;;;;;;;23.15;9.35;;;17.00;99.90;;;;;;5036617;28;20663;-72
2023/09/28 06:34:55;;;;;;;23.08;9.95;;;17.00;99.90;;;;;;5033866;28;20188;-73
2023/09/28 06:37:21;;;;;;;17.73;8.50;;;17.00;99.90;;;;;;5037396;28;20288;-74
2023/09/28 06:39:47;;;;;;;21.23;7.75;;;17.10;99.90;;;;;;5049539;28;20652;-74
2023/09/28 06:42:13;;;;;;;20.42;6.63;;;17.10;99.90;;;;;;5041694;28;20648;-71
2023/09/28 06:44:39;;;;;;;27.50;7.00;;;17.10;99.90;;;;;;5040324;28;20198;-73
2023/09/28 06:47:05;;;;;;;25.92;6.03;;;17.10;99.90;;;;;;5049361;28;20192;-74
2023/09/28 06:49:32;;;;;;;26.45;6.45;;;17.20;99.90;;;;;;5049491;28;20210;-73
2023/09/28 06:51:58;;;;;;;24.98;6.47;;;17.20;99.90;;;;;;5045292;28;20346;-74
2023/09/28 06:54:24;;;;;;;27.17;5.85;;;17.20;99.90;;;;;;5034656;28;20715;-76
2023/09/28 06:56:50;;;;;;;25.20;5.70;;;17.20;99.90;;;;;;5036447;28;20223;-76
2023/09/28 06:59:16;;;;;;;27.67;6.07;;;17.30;99.90;;;;;;5048959;28;20214;-73
2023/09/28 07:01:42;;;;;;;23.75;5.40;;;17.30;99.90;;;;;;5047629;28;20596;-75
2023/09/28 07:04:08;;;;;;;29.40;5.40;;;17.30;99.90;;;;;;5052250;28;20183;-74
2023/09/28 07:06:34;;;;;;;22.77;5.75;;;17.30;99.90;;;;;;5048415;28;20186;-72
2023/09/28 07:09:02;;;;;;;28.50;5.80;;;17.40;99.90;;;;;;5035335;28;20271;-76
2023/09/28 07:11:28;;;;;;;21.55;5.13;;;17.40;99.90;;;;;;5053329;28;20264;-73
2023/09/28 07:13:54;;;;;;;30.90;5.85;;;17.50;99.90;;;;;;5053670;28;20206;-72
2023/09/28 07:16:20;;;;;;;24.02;5.60;;;17.50;99.90;;;;;;5053597;28;20247;-73
2023/09/28 07:18:46;;;;;;;26.00;5.72;;;17.50;99.90;;;;;;5050843;28;20233;-74
2023/09/28 07:21:12;;;;;;;30.40;5.80;;;17.60;99.90;;;;;;5046099;28;20557;-73
2023/09/28 07:23:41;;;;;;;22.55;4.78;;;17.60;99.90;;;;;;5053967;28;20183;-74
2023/09/28 07:26:16;;;;;;;28.40;5.60;;;17.60;99.90;;;;;;5053459;28;20183;-73
2023/09/28 07:28:43;;;;;;;29.98;5.28;;;17.70;99.90;;;;;;5050264;28;20267;-74
2023/09/28 07:31:11;;;;;;;28.17;5.32;;;17.70;99.90;;;;;;5044497;28;20640;-73
2023/09/28 07:33:39;;;;;;;28.88;5.40;;;17.80;99.90;;;;;;5053631;28;20261;-75
2023/09/28 07:36:05;;;;;;;26.08;5.10;;;17.80;99.90;;;;;;5051447;28;20203;-73
2023/09/28 07:38:35;;;;;;;31.63;5.70;;;18.00;99.90;;;;;;5046450;28;20285;-72
2023/09/28 07:41:02;;;;;;;25.40;5.22;;;18.10;99.90;;;;;;5038278;28;20226;-73
2023/09/28 07:43:29;;;;;;;28.17;5.35;;;18.20;99.90;;;;;;5038785;28;20217;-74
2023/09/28 07:45:55;;;;;;;30.73;5.47;;;18.30;99.90;;;;;;5049429;28;20674;-71
2023/09/28 07:48:21;;;;;;;29.70;5.07;;;18.40;99.90;;;;;;5051646;28;20195;-73
2023/09/28 07:50:47;;;;;;;30.25;5.80;;;18.50;99.90;;;;;;5047315;28;20517;-71
2023/09/28 07:53:13;;;;;;;27.45;5.60;;;18.60;99.90;;;;;;5033660;28;20234;-72
2023/09/28 07:55:40;;;;;;;26.23;4.93;;;18.60;99.90;;;;;;5042680;28;20259;-74
2023/09/28 07:58:06;;;;;;;26.73;4.93;;;18.70;99.90;;;;;;5052165;28;20244;-74
2023/09/28 08:00:32;;;;;;;23.63;5.22;;;18.80;99.90;;;;;;5040722;28;20274;-73
2023/09/28 08:02:58;;;;;;;21.83;4.45;;;18.90;99.90;;;;;;5045843;28;20192;-74
2023/09/28 08:05:24;;;;;;;23.27;4.78;;;19.10;99.90;;;;;;5053179;28;20199;-73
2023/09/28 08:07:50;;;;;;;27.25;4.97;;;19.30;99.90;;;;;;5049720;28;20536;-73
2023/09/28 08:10:16;;;;;;;24.95;4.72;;;19.40;99.90;;;;;;5041193;28;20686;-74
2023/09/28 08:12:43;;;;;;;28.20;5.68;;;19.50;99.90;;;;;;5045581;28;20191;-73
2023/09/28 08:15:10;;;;;;;24.45;4.43;;;19.50;99.90;;;;;;5051449;28;20257;-74
2023/09/28 08:17:41;;;;;;;22.92;4.75;;;19.60;99.90;;;;;;5051152;28;20260;-74
2023/09/28 08:20:07;;;;;;;26.67;4.30;;;19.60;99.90;;;;;;5044410;28;20190;-74
2023/09/28 08:22:35;;;;;;;23.15;4.55;;;19.60;99.90;;;;;;5038523;28;20183;-72
2023/09/28 08:25:05;;;;;;;24.70;4.63;;;19.60;99.90;;;;;;5041082;28;20205;-73
2023/09/28 08:27:31;;;;;;;24.75;4.43;;;19.60;99.90;;;;;;5051155;28;20206;-72
2023/09/28 08:29:57;;;;;;;30.52;4.90;;;19.60;99.90;;;;;;5050336;28;20179;-72
2023/09/28 08:32:23;;;;;;;29.52;4.90;;;19.70;99.90;;;;;;5046512;28;20180;-74
2023/09/28 08:34:49;;;;;;;29.88;4.60;;;19.80;99.90;;;;;;5048012;28;20210;-71
2023/09/28 08:37:15;;;;;;;27.00;4.65;;;19.80;99.90;;;;;;5049416;28;20302;-79
2023/09/28 08:39:41;;;;;;;22.20;4.43;;;19.80;99.90;;;;;;5045055;28;20195;-74
2023/09/28 08:42:12;;;;;;;23.73;4.32;;;19.80;99.90;;;;;;5047850;28;20520;-73
2023/09/28 08:44:39;;;;;;;25.45;4.65;;;19.80;99.90;;;;;;5042985;28;20183;-75
2023/09/28 08:47:19;;;;;;;26.63;4.57;;;19.90;99.90;;;;;;5051304;28;20250;-74
2023/09/28 08:49:49;;;;;;;26.63;5.10;;;19.90;99.90;;;;;;5046550;28;20187;-74
2023/09/28 08:52:17;;;;;;;25.73;4.63;;;20.00;99.90;;;;;;5050007;28;20187;-76
2023/09/28 08:54:43;;;;;;;27.90;4.88;;;20.10;99.90;;;;;;5051820;28;20191;-73
2023/09/28 08:57:15;;;;;;;25.15;4.15;;;20.10;99.90;;;;;;5041576;28;20238;-73
2023/09/28 08:59:42;;;;;;;27.42;4.82;;;20.20;99.90;;;;;;5047761;28;20253;-72
2023/09/28 09:02:09;;;;;;;22.40;4.60;;;20.20;99.90;;;;;;5033168;28;20195;-74
2023/09/28 09:04:35;;;;;;;34.85;5.00;;;20.40;99.90;;;;;;5045131;28;20210;-73
2023/09/28 09:07:03;;;;;;;34.05;6.22;;;20.50;99.90;;;;;;5050313;28;20612;-71
2023/09/28 09:09:32;;;;;;;30.08;5.40;;;20.60;99.90;;;;;;5050109;28;20195;-72
2023/09/28 09:12:00;;;;;;;27.80;4.80;;;20.70;99.90;;;;;;5037949;28;20574;-73
2023/09/28 09:14:28;;;;;;;25.00;5.05;;;20.70;99.90;;;;;;5051507;28;20190;-74
2023/09/28 09:16:55;;;;;;;28.85;5.65;;;20.70;99.90;;;;;;5043438;28;20219;-70
2023/09/28 09:19:21;;;;;;;25.42;4.82;;;20.80;99.90;;;;;;5046710;28;20226;-73
2023/09/28 09:21:49;;;;;;;23.80;4.72;;;20.90;99.90;;;;;;5040735;28;20188;-72
2023/09/28 09:24:18;;;;;;;31.00;4.68;;;20.90;99.90;;;;;;5044940;28;20493;-72
2023/09/28 09:26:50;;;;;;;25.35;4.65;;;20.90;99.90;;;;;;5046175;28;20187;-73
2023/09/28 09:29:16;;;;;;;23.30;4.50;;;21.00;99.90;;;;;;5045846;28;20384;-73
2023/09/28 09:31:44;;;;;;;26.30;4.85;;;21.00;99.90;;;;;;5043049;28;20184;-73
2023/09/28 09:34:14;;;;;;;27.67;4.55;;;21.10;99.90;;;;;;5035410;28;20179;-73
2023/09/28 09:36:43;;;;;;;26.58;4.75;;;21.10;99.90;;;;;;5048674;28;20219;-73
2023/09/28 09:39:24;;;;;;;21.08;4.07;;;21.20;99.90;;;;;;5049571;28;20592;-74
2023/09/28 09:41:54;;;;;;;22.63;4.22;;;21.20;99.90;;;;;;5051381;28;20191;-71
2023/09/28 09:44:21;;;;;;;26.10;4.60;;;21.20;99.90;;;;;;5041552;28;20176;-74
2023/09/28 09:46:49;;;;;;;26.95;4.80;;;21.20;99.90;;;;;;5032761;28;20202;-72
2023/09/28 09:49:16;;;;;;;25.15;5.05;;;21.10;99.90;;;;;;5050619;28;20214;-73
2023/09/28 09:51:47;;;;;;;23.65;4.95;;;21.10;99.90;;;;;;5031007;28;20187;-71
2023/09/28 09:54:18;;;;;;;29.67;5.93;;;21.10;99.90;;;;;;5043152;28;20313;-71
2023/09/28 09:56:46;;;;;;;29.35;6.00;;;21.10;99.90;;;;;;5031411;28;20260;-73
2023/09/28 09:59:17;;;;;;;30.33;6.15;;;21.10;99.90;;;;;;5040666;28;20194;-72
2023/09/28 10:01:51;;;;;;;28.20;6.93;;;21.10;99.90;;;;;;5050253;28;20215;-74
2023/09/28 10:04:19;;;;;;;30.42;6.93;;;21.10;99.90;;;;;;5048394;28;20194;-73
2023/09/28 10:06:50;;;;;;;35.47;9.00;;;21.00;99.90;;;;;;5037543;28;20187;-74
2023/09/28 10:09:20;;;;;;;38.70;7.97;;;21.00;99.90;;;;;;5049587;28;20198;-72
2023/09/28 10:11:50;;;;;;;39.30;8.43;;;20.90;99.90;;;;;;5049424;28;20186;-73
2023/09/28 10:14:18;;;;;;;34.05;8.50;;;21.00;99.90;;;;;;5050842;28;20201;-72
2023/09/28 10:16:48;;;;;;;39.63;8.32;;;21.00;99.90;;;;;;5036160;28;20230;-73
2023/09/28 10:19:19;;;;;;;31.85;7.55;;;21.00;99.90;;;;;;5044578;28;20183;-72
2023/09/28 10:21:45;;;;;;;33.90;7.32;;;21.10;99.90;;;;;;5050950;28;20191;-74
2023/09/28 10:24:13;;;;;;;34.25;6.75;;;21.20;99.90;;;;;;5050665;28;20492;-73
2023/09/28 10:26:50;;;;;;;31.60;6.85;;;21.20;99.90;;;;;;5039388;28;20184;-71
2023/09/28 10:29:20;;;;;;;32.30;6.60;;;21.30;99.90;;;;;;5046385;28;20187;-72
2023/09/28 10:31:46;;;;;;;23.83;5.95;;;21.30;99.90;;;;;;5050444;28;20198;-72
2023/09/28 10:34:22;;;;;;;25.65;5.78;;;21.30;99.90;;;;;;5049741;28;20221;-73
2023/09/28 10:37:11;;;;;;;28.08;5.20;;;21.30;99.90;;;;;;5043474;28;20268;-73
2023/09/28 10:39:57;;;;;;;24.77;4.78;;;21.30;99.90;;;;;;5043284;28;20207;-74
2023/09/28 10:42:23;;;;;;;29.10;5.25;;;21.30;99.90;;;;;;5054032;28;20205;-74
2023/09/28 10:44:52;;;;;;;31.50;5.40;;;21.20;99.90;;;;;;5054183;28;20179;-73
2023/09/28 10:47:22;;;;;;;22.73;4.75;;;21.20;99.90;;;;;;5048102;28;20303;-73
2023/09/28 10:49:49;;;;;;;25.52;5.25;;;21.20;99.90;;;;;;5035937;28;20199;-73
2023/09/28 10:52:16;;;;;;;25.30;5.53;;;21.20;99.90;;;;;;5053727;28;20193;-73
2023/09/28 10:54:44;;;;;;;29.85;4.38;;;21.20;99.90;;;;;;5053869;28;20191;-73
2023/09/28 10:57:10;;;;;;;28.85;5.15;;;21.20;99.90;;;;;;5038461;28;20338;-73
2023/09/28 10:59:37;;;;;;;24.75;5.07;;;21.30;99.90;;;;;;5040402;28;20262;-73
2023/09/28 11:02:04;;;;;;;26.05;5.28;;;21.30;99.90;;;;;;5040110;28;20182;-72
2023/09/28 11:04:31;;;;;;;25.90;6.05;;;21.30;99.90;;;;;;5053882;28;20218;-73
2023/09/28 11:07:00;;;;;;;26.27;5.43;;;21.20;99.90;;;;;;5053716;28;20175;-72
2023/09/28 11:09:29;;;;;;;23.98;4.90;;;21.30;99.90;;;;;;5039468;28;20688;-72
2023/09/28 11:11:55;;;;;;;27.58;5.10;;;21.20;99.90;;;;;;5042354;28;20187;-74
2023/09/28 11:14:26;;;;;;;26.08;4.95;;;21.20;99.90;;;;;;5053680;28;20258;-73
2023/09/28 11:16:53;;;;;;;24.13;4.40;;;21.30;99.90;;;;;;5053975;28;20255;-73
2023/09/28 11:19:20;;;;;;;23.48;5.18;;;21.30;99.90;;;;;;5043899;28;20286;-73
2023/09/28 11:21:46;;;;;;;27.75;5.03;;;21.30;99.90;;;;;;5049001;28;20188;-73
2023/09/28 11:24:12;;;;;;;25.50;4.93;;;21.30;99.90;;;;;;5047648;28;20318;-74
2023/09/28 11:26:42;;;;;;;26.17;5.28;;;21.30;99.90;;;;;;5053403;28;20274;-73
2023/09/28 11:29:09;;;;;;;27.23;5.22;;;21.30;99.90;;;;;;5049959;28;20179;-72
2023/09/28 11:31:35;;;;;;;25.67;4.75;;;21.30;99.90;;;;;;5048247;28;20191;-73
2023/09/28 11:34:05;;;;;;;22.33;4.82;;;21.30;99.90;;;;;;5051880;28;20180;-72
2023/09/28 11:36:32;;;;;;;28.80;4.63;;;21.30;99.90;;;;;;5053691;28;20724;-72
2023/09/28 11:39:00;;;;;;;26.35;5.05;;;21.20;99.90;;;;;;5052673;28;20172;-74
2023/09/28 11:41:26;;;;;;;30.05;4.72;;;21.20;99.90;;;;;;5037673;28;20719;-73
2023/09/28 11:43:56;;;;;;;24.08;4.40;;;21.10;99.90;;;;;;5050493;28;20278;-74
2023/09/28 11:46:24;;;;;;;30.85;5.60;;;21.10;99.90;;;;;;5053115;28;20179;-74
2023/09/28 11:49:06;;;;;;;24.05;4.90;;;21.00;99.90;;;;;;5051985;28;20191;-73
2023/09/28 11:51:33;;;;;;;27.80;4.97;;;21.10;99.90;;;;;;5050466;28;20187;-73
2023/09/28 11:54:00;;;;;;;29.70;5.30;;;21.10;99.90;;;;;;5051811;28;20246;-74
2023/09/28 11:56:27;;;;;;;23.30;4.70;;;21.20;99.90;;;;;;5039518;28;20228;-72
2023/09/28 11:58:53;;;;;;;32.90;5.22;;;21.20;99.90;;;;;;5052390;28;20279;-74
2023/09/28 12:01:19;;;;;;;23.58;4.60;;;21.30;99.90;;;;;;5046518;28;20211;-72
2023/09/28 12:03:48;;;;;;;27.20;5.30;;;21.30;99.90;;;;;;5040531;28;20199;-73
2023/09/28 12:06:17;;;;;;;25.48;4.45;;;21.40;99.90;;;;;;5052482;28;20325;-74
2023/09/28 12:08:44;;;;;;;24.50;4.90;;;21.40;99.90;;;;;;5051747;28;20179;-74
2023/09/28 12:11:11;;;;;;;28.10;5.50;;;21.50;99.90;;;;;;5054930;28;20302;-73
2023/09/28 12:13:37;;;;;;;31.10;4.97;;;21.50;99.90;;;;;;5040329;28;20191;-73
2023/09/28 12:16:04;;;;;;;24.42;4.75;;;21.60;99.90;;;;;;5032757;28;20242;-73
2023/09/28 12:18:30;;;;;;;24.85;4.57;;;21.60;99.90;;;;;;5052223;28;20193;-73
2023/09/28 12:20:55;;;;;;;26.35;5.30;;;21.60;99.90;;;;;;5050811;28;20187;-73
2023/09/28 12:23:21;;;;;;;29.05;5.47;;;21.70;99.90;;;;;;5036919;28;20222;-73
2023/09/28 12:25:48;;;;;;;21.33;4.95;;;21.70;99.90;;;;;;5047011;28;20204;-74
2023/09/28 12:28:14;;;;;;;24.13;5.00;;;21.70;99.90;;;;;;5052910;28;20199;-72
2023/09/28 12:30:40;;;;;;;21.00;4.35;;;21.70;99.90;;;;;;5050611;28;20187;-75
2023/09/28 12:33:08;;;;;;;24.50;4.95;;;21.60;99.90;;;;;;5043613;28;20180;-72
2023/09/28 12:35:35;;;;;;;24.63;4.55;;;21.50;99.90;;;;;;5045729;28;20194;-74
2023/09/28 12:38:04;;;;;;;23.98;4.45;;;21.40;99.90;;;;;;5052450;28;20221;-73